Time;durP1;ratioP1;P1;durP2;ratioP2;P2;SDS_P1;SDS_P2;PMS_P1;PMS_P2;Temp;Humidity;BMP_temperature;BMP_pressure;BME280_temperature;BME280_humidity;BME280_pressure;Samples;Min_cycle;Max_cycle;Signal;HPM_P1;HPM_P2
2024/02/06 00:02:14;;;;;;;10.40;5.20;;;;;;;2.83;77.01;99954.00;109101;1254;138546;-60
2024/02/06 00:04:42;;;;;;;8.80;5.10;;;;;;;2.82;76.90;99953.47;109109;1256;75185;-60
2024/02/06 00:07:08;;;;;;;10.40;6.40;;;;;;;2.83;77.03;99956.80;106069;1258;138499;-59
2024/02/06 00:09:35;;;;;;;10.50;6.10;;;;;;;2.85;77.06;99954.63;105216;1259;71065;-67
2024/02/06 00:12:02;;;;;;;9.20;6.40;;;;;;;2.88;77.20;99954.06;105024;1257;62181;-68
2024/02/06 00:14:30;;;;;;;10.70;8.30;;;;;;;2.89;77.18;99947.88;104728;1257;138488;-59
2024/02/06 00:16:57;;;;;;;13.20;9.00;;;;;;;2.89;77.10;99945.28;104889;1254;76081;-61
2024/02/06 00:19:23;;;;;;;14.10;10.00;;;;;;;2.86;77.08;99941.18;104917;1259;137980;-60
2024/02/06 00:21:50;;;;;;;10.50;7.80;;;;;;;2.84;77.09;99943.15;104906;1256;73555;-61
2024/02/06 00:24:17;;;;;;;9.20;6.80;;;;;;;2.81;77.07;99934.86;104802;1257;138002;-60
2024/02/06 00:26:44;;;;;;;10.40;7.40;;;;;;;2.76;77.22;99928.92;105383;1258;62034;-61
2024/02/06 00:29:10;;;;;;;9.40;7.00;;;;;;;2.72;77.21;99924.98;104946;1257;76190;-61
2024/02/06 00:31:37;;;;;;;11.20;6.80;;;;;;;2.70;77.26;99920.35;105010;1262;138298;-61
2024/02/06 00:34:04;;;;;;;9.10;6.40;;;;;;;2.65;77.34;99920.70;105023;1257;72273;-60
2024/02/06 00:36:31;;;;;;;8.20;6.40;;;;;;;2.59;77.27;99921.83;104741;1262;138968;-61
2024/02/06 00:38:57;;;;;;;9.60;7.00;;;;;;;2.58;77.51;99930.95;104735;1262;61658;-60
2024/02/06 00:41:24;;;;;;;11.50;7.60;;;;;;;2.58;77.47;99926.96;105119;1257;75500;-61
2024/02/06 00:43:51;;;;;;;11.00;8.00;;;;;;;2.59;77.55;99931.66;104990;1254;139038;-61
2024/02/06 00:46:18;;;;;;;11.90;8.80;;;;;;;2.57;77.43;99931.56;109024;1257;74175;-60
2024/02/06 00:48:44;;;;;;;16.00;10.30;;;;;;;2.56;77.70;99928.93;105436;1257;138828;-60
2024/02/06 00:51:11;;;;;;;15.00;10.10;;;;;;;2.55;77.55;99927.17;105042;1257;61964;-62
2024/02/06 00:53:38;;;;;;;15.60;11.20;;;;;;;2.52;77.56;99922.17;105013;1257;76458;-60
2024/02/06 00:56:06;;;;;;;15.60;10.50;;;;;;;2.53;77.76;99918.92;104811;1257;138664;-59
2024/02/06 00:58:32;;;;;;;11.90;9.90;;;;;;;2.56;77.86;99913.88;105043;1254;70565;-59
2024/02/06 01:01:00;;;;;;;12.20;9.40;;;;;;;2.57;77.74;99908.39;104638;1257;139215;-59
2024/02/06 01:03:28;;;;;;;13.40;9.30;;;;;;;2.59;77.91;99906.92;109229;1254;59838;-60
2024/02/06 01:05:54;;;;;;;14.80;9.60;;;;;;;2.60;77.77;99918.91;108564;1258;74794;-60
2024/02/06 01:08:21;;;;;;;11.70;9.60;;;;;;;2.57;77.73;99914.61;105000;1254;138113;-60
2024/02/06 01:10:48;;;;;;;13.40;10.00;;;;;;;2.57;77.69;99908.90;104946;1257;73834;-60
2024/02/06 01:13:15;;;;;;;15.70;10.10;;;;;;;2.57;77.89;99899.88;104830;1261;138197;-60
2024/02/06 01:15:41;;;;;;;14.10;9.70;;;;;;;2.57;77.85;99899.02;105184;1259;61194;-60
2024/02/06 01:18:08;;;;;;;13.20;10.00;;;;;;;2.60;77.91;99904.36;105079;1259;75374;-60
2024/02/06 01:20:35;;;;;;;13.80;10.20;;;;;;;2.56;77.81;99898.81;105094;1256;138244;-59
2024/02/06 01:23:02;;;;;;;14.70;10.40;;;;;;;2.51;77.76;99894.60;104817;1260;73653;-60
2024/02/06 01:25:30;;;;;;;17.70;11.70;;;;;;;2.48;77.89;99891.38;104689;1257;138658;-62
2024/02/06 01:27:56;;;;;;;18.60;12.20;;;;;;;2.49;77.92;99890.37;105145;1258;62037;-60
2024/02/06 01:30:23;;;;;;;19.60;13.90;;;;;;;2.47;77.96;99888.40;104758;1262;138990;-61
2024/02/06 01:32:50;;;;;;;21.00;14.80;;;;;;;2.49;77.95;99889.66;105135;1257;67192;-60
2024/02/06 01:35:17;;;;;;;24.00;16.00;;;;;;;2.47;77.92;99889.42;104923;1257;72192;-60
2024/02/06 01:37:43;;;;;;;22.80;15.70;;;;;;;2.46;77.82;99887.48;105000;1259;138774;-60
2024/02/06 01:40:10;;;;;;;30.00;18.10;;;;;;;2.43;77.86;99887.19;105138;1259;62051;-60
2024/02/06 01:42:37;;;;;;;26.60;18.00;;;;;;;2.39;77.86;99881.80;104897;1257;139493;-60
2024/02/06 01:45:04;;;;;;;27.10;17.70;;;;;;;2.38;78.12;99887.09;105063;1259;66188;-60
2024/02/06 01:47:32;;;;;;;23.20;16.60;;;;;;;2.42;78.13;99881.60;109091;1254;71799;-61
2024/02/06 01:49:58;;;;;;;30.60;18.30;;;;;;;2.44;78.23;99879.59;108890;1255;138958;-61
2024/02/06 01:52:25;;;;;;;26.80;16.90;;;;;;;2.47;78.10;99875.55;109024;1257;60147;-61
2024/02/06 01:54:52;;;;;;;25.60;18.10;;;;;;;2.51;78.23;99879.90;108834;1254;137942;-61
2024/02/06 01:57:19;;;;;;;25.50;17.10;;;;;;;2.56;78.10;99873.70;106163;1256;66843;-60
2024/02/06 01:59:46;;;;;;;28.20;18.60;;;;;;;2.56;78.03;99867.63;104769;1255;72221;-61
2024/02/06 02:02:13;;;;;;;29.50;19.30;;;;;;;2.58;78.24;99861.45;105085;1257;138373;-60
2024/02/06 02:04:40;;;;;;;32.70;19.80;;;;;;;2.58;78.04;99868.06;109195;1258;60024;-61
2024/02/06 02:07:07;;;;;;;30.80;20.40;;;;;;;2.59;78.14;99860.33;109097;1257;139131;-61
2024/02/06 02:09:34;;;;;;;31.00;18.90;;;;;;;2.60;78.19;99856.56;109057;1257;67633;-61
2024/02/06 02:12:00;;;;;;;31.20;20.20;;;;;;;2.61;78.07;99858.13;109007;1254;71182;-61
2024/02/06 02:14:27;;;;;;;23.90;16.90;;;;;;;2.57;77.88;99824.55;108916;1255;139438;-61
2024/02/06 02:16:54;;;;;;;27.30;17.40;;;;;;;2.52;77.88;99848.78;109207;1255;61482;-61
2024/02/06 02:19:21;;;;;;;25.40;18.20;;;;;;;2.48;77.97;99858.98;109092;1254;138768;-61
2024/02/06 02:21:49;;;;;;;26.60;18.50;;;;;;;2.47;78.22;99844.40;109026;1257;66274;-61
2024/02/06 02:24:15;;;;;;;28.10;17.60;;;;;;;2.48;78.23;99828.17;109077;1254;138927;-62
2024/02/06 02:26:42;;;;;;;24.50;17.10;;;;;;;2.50;78.04;99835.53;109182;1258;60148;-61
2024/02/06 02:29:09;;;;;;;26.90;17.10;;;;;;;2.53;78.09;99839.45;108916;1254;59833;-61
2024/02/06 02:31:39;;;;;;;21.40;14.90;;;;;;;2.58;78.15;99834.29;108911;1254;138779;-61
2024/02/06 02:34:07;;;;;;;20.60;14.50;;;;;;;2.62;78.14;99830.11;107682;1259;65000;-61
2024/02/06 02:36:34;;;;;;;16.10;12.10;;;;;;;2.61;78.03;99829.40;108914;1254;139434;-61
2024/02/06 02:39:01;;;;;;;17.70;12.30;;;;;;;2.62;77.93;99828.54;108982;1260;60012;-61
2024/02/06 02:41:28;;;;;;;14.20;10.80;;;;;;;2.65;78.19;99829.57;108919;1256;61579;-61
2024/02/06 02:43:55;;;;;;;15.40;10.90;;;;;;;2.68;78.19;99830.54;109111;1254;137702;-61
2024/02/06 02:46:21;;;;;;;15.70;11.70;;;;;;;2.71;78.02;99830.16;109224;1257;66299;-62
2024/02/06 02:48:48;;;;;;;15.10;10.50;;;;;;;2.73;78.08;99830.74;108955;1254;138325;-61
2024/02/06 02:51:15;;;;;;;15.00;11.50;;;;;;;2.74;78.05;99830.45;109047;1255;59822;-61
2024/02/06 02:53:42;;;;;;;15.90;11.20;;;;;;;2.76;78.06;99834.16;109017;1260;60742;-61
2024/02/06 02:56:09;;;;;;;15.30;11.80;;;;;;;2.77;77.91;99829.02;105046;1260;138444;-60
2024/02/06 02:58:36;;;;;;;15.00;11.90;;;;;;;2.75;77.88;99825.48;105074;1259;65330;-60
2024/02/06 03:01:03;;;;;;;15.00;11.80;;;;;;;2.71;77.90;99824.98;105126;1258;139205;-60
2024/02/06 03:03:30;;;;;;;14.90;11.70;;;;;;;2.68;77.90;99820.89;104917;1262;62492;-60
2024/02/06 03:05:57;;;;;;;15.50;11.90;;;;;;;2.67;77.90;99821.34;105189;1259;62825;-60
2024/02/06 03:08:24;;;;;;;18.40;13.00;;;;;;;2.67;77.93;99814.91;105059;1260;139865;-60
2024/02/06 03:10:51;;;;;;;16.10;12.50;;;;;;;2.65;78.10;99820.39;104786;1260;66881;-60
2024/02/06 03:13:18;;;;;;;18.40;13.40;;;;;;;2.64;78.03;99818.28;104782;1261;139278;-59
2024/02/06 03:15:45;;;;;;;16.70;12.20;;;;;;;2.62;77.91;99815.05;105113;1254;62151;-60
2024/02/06 03:18:12;;;;;;;15.90;12.10;;;;;;;2.62;78.13;99814.73;105003;1257;62054;-67
2024/02/06 03:20:38;;;;;;;17.70;12.90;;;;;;;2.60;77.98;99801.48;104965;1257;138527;-60
2024/02/06 03:23:05;;;;;;;18.10;13.60;;;;;;;2.59;78.22;99810.45;105102;1260;67278;-61
2024/02/06 03:25:32;;;;;;;19.70;13.90;;;;;;;2.58;78.02;99797.39;104790;1257;138592;-60
2024/02/06 03:27:59;;;;;;;17.90;13.00;;;;;;;2.57;78.20;99797.37;105106;1258;62059;-67
2024/02/06 03:30:26;;;;;;;17.80;13.60;;;;;;;2.53;77.98;99792.69;104961;1260;138453;-66
2024/02/06 03:32:54;;;;;;;20.10;13.30;;;;;;;2.51;78.25;99812.36;105088;1259;75726;-59
2024/02/06 03:35:21;;;;;;;17.90;13.20;;;;;;;2.49;78.18;99801.35;109017;1254;67396;-60
2024/02/06 03:37:48;;;;;;;19.10;13.90;;;;;;;2.46;78.14;99788.75;108861;1258;138162;-60
2024/02/06 03:40:15;;;;;;;19.30;12.30;;;;;;;2.44;78.31;99781.25;105152;1260;60607;-63
2024/02/06 03:42:41;;;;;;;17.40;12.60;;;;;;;2.40;78.15;99787.29;104868;1260;139210;-62
2024/02/06 03:45:08;;;;;;;17.60;12.30;;;;;;;2.37;78.20;99787.16;104838;1257;75572;-61
2024/02/06 03:47:35;;;;;;;17.90;13.00;;;;;;;2.34;78.27;99776.50;109191;1257;65393;-60
2024/02/06 03:50:03;;;;;;;21.60;13.80;;;;;;;2.35;78.50;99776.20;109099;1254;138653;-60
2024/02/06 03:52:30;;;;;;;20.40;14.20;;;;;;;2.39;78.52;99768.72;109186;1259;59648;-61
2024/02/06 03:54:57;;;;;;;19.70;15.10;;;;;;;2.42;78.44;99770.92;109098;1254;138728;-60
2024/02/06 03:57:23;;;;;;;23.10;15.70;;;;;;;2.46;78.56;99772.65;109177;1254;76082;-60
2024/02/06 03:59:50;;;;;;;24.70;16.70;;;;;;;2.50;78.52;99767.98;108999;1255;66312;-60
2024/02/06 04:02:17;;;;;;;24.50;16.10;;;;;;;2.54;78.47;99763.63;109022;1258;138577;-60
2024/02/06 04:04:44;;;;;;;24.50;15.20;;;;;;;2.56;78.42;99764.04;109172;1259;60011;-60
2024/02/06 04:07:11;;;;;;;22.10;15.20;;;;;;;2.53;78.26;99762.21;109057;1255;138432;-59
2024/02/06 04:09:37;;;;;;;26.50;16.50;;;;;;;2.52;78.23;99756.80;109219;1254;75662;-60
2024/02/06 04:12:05;;;;;;;24.30;17.40;;;;;;;2.50;78.30;99754.33;109193;1254;65615;-62
2024/02/06 04:14:32;;;;;;;24.00;16.40;;;;;;;2.52;78.45;99754.91;109081;1254;138432;-60
2024/02/06 04:16:59;;;;;;;24.20;17.00;;;;;;;2.53;78.39;99751.82;109202;1254;59862;-61
2024/02/06 04:19:26;;;;;;;24.70;17.00;;;;;;;2.51;78.28;99753.64;109087;1254;137787;-60
2024/02/06 04:21:53;;;;;;;25.60;17.00;;;;;;;2.51;78.44;99749.48;105141;1259;74677;-60
2024/02/06 04:24:19;;;;;;;25.90;17.40;;;;;;;2.49;78.38;99747.19;104948;1259;138087;-60
2024/02/06 04:26:46;;;;;;;24.60;16.70;;;;;;;2.49;78.35;99747.17;105096;1259;71826;-60
2024/02/06 04:29:13;;;;;;;22.80;15.10;;;;;;;2.49;78.53;99752.17;104997;1260;62537;-60
2024/02/06 04:31:40;;;;;;;21.00;15.00;;;;;;;2.50;78.73;99754.31;104856;1260;138750;-67
2024/02/06 04:34:07;;;;;;;20.00;14.20;;;;;;;2.51;78.65;99755.38;109225;1254;76342;-68
2024/02/06 04:36:35;;;;;;;22.80;14.70;;;;;;;2.53;78.67;99752.71;109053;1263;139316;-61
2024/02/06 04:39:01;;;;;;;17.60;13.20;;;;;;;2.54;78.52;99751.17;108997;1254;73083;-61
2024/02/06 04:41:28;;;;;;;20.50;13.80;;;;;;;2.55;78.76;99750.52;109166;1260;59961;-68
2024/02/06 04:43:55;;;;;;;19.60;13.80;;;;;;;2.56;78.65;99744.48;109042;1255;138989;-68
2024/02/06 04:46:21;;;;;;;20.00;14.00;;;;;;;2.58;78.54;99745.96;109093;1259;73530;-68
2024/02/06 04:48:48;;;;;;;22.40;13.70;;;;;;;2.57;78.63;99744.34;109109;1254;139089;-68
2024/02/06 04:51:15;;;;;;;20.00;14.50;;;;;;;2.58;78.55;99740.77;109171;1260;73576;-68
2024/02/06 04:53:42;;;;;;;25.90;15.40;;;;;;;2.60;78.69;99737.38;109190;1254;59923;-68
2024/02/06 04:56:10;;;;;;;21.20;14.40;;;;;;;2.62;78.56;99733.98;109065;1254;138916;-68
2024/02/06 04:58:37;;;;;;;19.80;13.50;;;;;;;2.63;78.62;99729.52;109165;1254;76433;-68
2024/02/06 05:01:04;;;;;;;19.70;13.00;;;;;;;2.66;78.72;99725.33;108936;1254;138910;-68
2024/02/06 05:03:31;;;;;;;21.10;13.30;;;;;;;2.67;78.67;99719.66;109180;1254;70875;-68
2024/02/06 05:05:58;;;;;;;21.40;13.60;;;;;;;2.67;78.52;99713.23;109184;1254;60066;-68
2024/02/06 05:08:24;;;;;;;22.10;14.80;;;;;;;2.67;78.56;99715.01;109118;1254;137891;-68
2024/02/06 05:10:52;;;;;;;20.80;14.00;;;;;;;2.69;78.76;99715.23;109138;1254;76232;-68
2024/02/06 05:13:19;;;;;;;19.30;13.60;;;;;;;2.69;78.64;99712.48;109147;1254;138742;-68
2024/02/06 05:15:46;;;;;;;20.10;14.40;;;;;;;2.67;78.45;99709.27;106649;1258;73464;-68
2024/02/06 05:18:12;;;;;;;22.00;14.90;;;;;;;2.64;78.47;99706.38;105019;1259;62171;-67
2024/02/06 05:20:39;;;;;;;22.50;14.60;;;;;;;2.61;78.56;99701.55;108803;1256;138645;-61
2024/02/06 05:23:06;;;;;;;21.90;14.50;;;;;;;2.57;78.57;99696.91;109105;1255;74951;-61
2024/02/06 05:25:32;;;;;;;25.80;16.00;;;;;;;2.56;78.60;99698.59;109038;1254;138631;-60
2024/02/06 05:27:59;;;;;;;22.80;14.50;;;;;;;2.55;78.65;99699.43;109040;1254;73091;-61
2024/02/06 05:30:25;;;;;;;23.70;15.10;;;;;;;2.56;78.78;99699.97;109097;1254;139092;-60
2024/02/06 05:32:52;;;;;;;23.70;14.70;;;;;;;2.55;78.69;99697.88;109212;1254;60191;-59
2024/02/06 05:35:19;;;;;;;23.60;15.70;;;;;;;2.56;78.83;99691.85;109176;1254;75224;-60
2024/02/06 05:37:45;;;;;;;27.50;16.20;;;;;;;2.59;78.89;99683.65;109093;1254;138900;-60
2024/02/06 05:40:12;;;;;;;24.90;16.70;;;;;;;2.60;78.75;99683.70;109189;1260;72750;-60
2024/02/06 05:42:39;;;;;;;28.00;16.40;;;;;;;2.61;78.86;99683.40;109081;1254;139621;-68
2024/02/06 05:45:08;;;;;;;28.10;17.70;;;;;;;2.63;78.88;99683.83;109186;1254;63067;-67
2024/02/06 05:47:34;;;;;;;23.00;14.80;;;;;;;2.64;78.90;99682.11;109179;1254;75173;-67
2024/02/06 05:50:01;;;;;;;21.70;14.10;;;;;;;2.66;78.87;99671.62;109047;1258;138878;-67
2024/02/06 05:52:28;;;;;;;23.20;14.00;;;;;;;2.66;78.76;99670.58;109182;1254;71872;-67
2024/02/06 05:54:55;;;;;;;18.50;12.70;;;;;;;2.63;78.76;99662.88;109057;1254;138919;-67
2024/02/06 05:57:21;;;;;;;17.20;11.60;;;;;;;2.62;78.65;99659.01;109182;1254;60141;-67
2024/02/06 05:59:48;;;;;;;20.70;12.60;;;;;;;2.60;78.70;99655.28;109253;1254;76440;-67
2024/02/06 06:02:15;;;;;;;19.70;12.20;;;;;;;2.59;78.72;99654.20;109064;1255;138213;-67
2024/02/06 06:04:41;;;;;;;20.30;13.90;;;;;;;2.58;78.84;99650.90;109017;1254;72967;-67
2024/02/06 06:07:08;;;;;;;18.80;13.30;;;;;;;2.59;78.98;99648.33;104955;1260;138572;-66
2024/02/06 06:09:35;;;;;;;17.50;13.40;;;;;;;2.61;78.95;99649.95;105005;1256;62047;-67
2024/02/06 06:12:01;;;;;;;19.00;13.30;;;;;;;2.61;78.96;99647.23;104740;1256;76499;-66
2024/02/06 06:14:28;;;;;;;19.90;13.90;;;;;;;2.58;78.92;99639.10;105053;1258;138850;-67
2024/02/06 06:16:55;;;;;;;21.20;14.10;;;;;;;2.56;78.88;99639.20;104981;1258;71718;-67
2024/02/06 06:19:21;;;;;;;23.20;15.00;;;;;;;2.53;79.01;99629.58;104934;1260;138638;-67
2024/02/06 06:21:48;;;;;;;24.60;15.00;;;;;;;2.51;78.99;99633.11;105059;1260;61264;-67
2024/02/06 06:24:15;;;;;;;21.20;14.70;;;;;;;2.52;79.17;99631.95;104872;1260;76107;-67
2024/02/06 06:26:42;;;;;;;21.90;15.20;;;;;;;2.54;79.19;99624.41;104949;1258;66433;-68
2024/02/06 06:29:08;;;;;;;21.40;14.50;;;;;;;2.55;79.37;99614.73;104996;1257;71382;-68
2024/02/06 06:31:35;;;;;;;19.40;14.60;;;;;;;2.58;79.28;99609.81;104929;1259;139351;-68
2024/02/06 06:34:04;;;;;;;19.60;14.00;;;;;;;2.56;79.19;99611.31;105011;1254;62088;-68
2024/02/06 06:36:31;;;;;;;22.40;15.40;;;;;;;2.56;79.38;99611.83;108823;1254;138483;-66
2024/02/06 06:38:58;;;;;;;25.30;16.70;;;;;;;2.57;79.33;99608.23;109147;1254;64448;-62
2024/02/06 06:41:25;;;;;;;24.40;16.40;;;;;;;2.57;79.44;99604.94;109135;1257;72134;-59
2024/02/06 06:43:52;;;;;;;26.60;15.90;;;;;;;2.60;79.40;99600.54;109049;1256;137973;-59
2024/02/06 06:46:19;;;;;;;23.40;15.70;;;;;;;2.60;79.31;99600.73;109233;1254;59990;-60
2024/02/06 06:48:45;;;;;;;21.70;15.60;;;;;;;2.60;79.37;99603.50;109067;1254;138638;-60
2024/02/06 06:51:12;;;;;;;22.90;15.10;;;;;;;2.63;79.33;99599.66;109210;1254;64511;-60
2024/02/06 06:53:39;;;;;;;23.70;15.80;;;;;;;2.66;79.39;99596.62;109200;1254;71867;-60
2024/02/06 06:56:15;;;;;;;25.00;15.50;;;;;;;2.68;79.26;99598.46;109029;1254;139395;-60
2024/02/06 06:58:41;;;;;;;23.50;16.10;;;;;;;2.72;79.51;99590.63;109044;1254;60479;-60
2024/02/06 07:01:08;;;;;;;25.00;17.10;;;;;;;2.75;79.44;99592.64;108803;1257;138951;-60
2024/02/06 07:03:35;;;;;;;24.90;16.70;;;;;;;2.79;79.50;99594.36;109012;1254;67289;-60
2024/02/06 07:06:02;;;;;;;26.70;17.60;;;;;;;2.86;79.57;99597.71;109038;1254;74156;-60
2024/02/06 07:08:29;;;;;;;27.60;18.10;;;;;;;2.89;79.45;99595.77;108740;1254;139160;-60
2024/02/06 07:10:56;;;;;;;31.60;19.30;;;;;;;2.90;79.32;99595.83;109069;1254;60054;-60
2024/02/06 07:13:23;;;;;;;29.10;20.30;;;;;;;2.95;79.38;99603.27;109077;1254;138650;-60
2024/02/06 07:15:49;;;;;;;32.60;19.50;;;;;;;2.99;79.25;99604.09;108984;1254;66075;-60
2024/02/06 07:18:16;;;;;;;38.80;26.30;;;;;;;3.04;79.39;99599.94;108122;1257;138729;-60
2024/02/06 07:20:43;;;;;;;36.60;27.00;;;;;;;3.08;79.35;99595.06;104783;1257;62003;-60
2024/02/06 07:23:10;;;;;;;41.20;29.00;;;;;;;3.10;79.51;99585.80;105081;1254;62078;-60
2024/02/06 07:25:36;;;;;;;34.70;23.90;;;;;;;3.20;79.65;99576.25;104995;1254;138462;-61
2024/02/06 07:28:05;;;;;;;37.80;23.50;;;;;;;3.25;79.51;99572.45;104700;1256;64359;-61
2024/02/06 07:30:31;;;;;;;35.10;24.60;;;;;;;3.26;79.33;99565.73;109014;1254;137859;-61
2024/02/06 07:32:58;;;;;;;36.10;23.80;;;;;;;3.29;79.37;99561.16;108379;1254;59967;-62
2024/02/06 07:35:25;;;;;;;38.50;25.20;;;;;;;3.33;79.46;99560.40;105060;1254;62165;-60
2024/02/06 07:37:51;;;;;;;173.80;114.10;;;;;;;3.39;79.53;99560.45;104917;1254;138191;-60
2024/02/06 07:40:18;;;;;;;58.00;38.10;;;;;;;3.44;79.56;99561.84;104985;1255;67244;-61
2024/02/06 07:42:49;;;;;;;58.70;37.20;;;;;;;3.46;79.37;99565.38;104821;1261;139411;-62
2024/02/06 07:45:16;;;;;;;52.70;35.10;;;;;;;3.48;79.41;99562.33;104992;1257;61980;-61
2024/02/06 07:47:43;;;;;;;50.90;32.40;;;;;;;3.54;79.51;99553.13;105133;1257;60659;-62
2024/02/06 07:50:10;;;;;;;132.90;81.10;;;;;;;3.59;79.47;99552.27;104879;1259;138604;-60
2024/02/06 07:52:37;;;;;;;70.70;43.70;;;;;;;3.60;79.34;99548.34;104820;1258;65550;-61
2024/02/06 07:55:04;;;;;;;49.30;32.40;;;;;;;3.66;79.41;99550.60;104803;1254;138687;-61
2024/02/06 07:57:31;;;;;;;48.90;32.20;;;;;;;3.70;79.31;99551.08;108937;1254;59880;-62
2024/02/06 07:59:57;;;;;;;49.10;32.00;;;;;;;3.76;79.38;99551.44;109149;1254;60106;-61
2024/02/06 08:02:25;;;;;;;44.20;28.80;;;;;;;3.80;79.35;99548.82;108846;1254;138599;-68
2024/02/06 08:04:53;;;;;;;45.20;29.90;;;;;;;3.85;79.34;99547.06;109018;1254;67407;-68
2024/02/06 08:07:20;;;;;;;40.00;24.80;;;;;;;3.90;79.26;99547.55;109069;1254;138108;-68
2024/02/06 08:09:47;;;;;;;41.80;25.90;;;;;;;3.94;79.16;99547.87;108974;1254;59739;-69
2024/02/06 08:12:14;;;;;;;41.00;26.90;;;;;;;3.98;79.12;99550.61;109153;1254;59977;-66
2024/02/06 08:14:41;;;;;;;43.00;26.40;;;;;;;4.02;79.19;99552.81;108934;1254;75720;-68
2024/02/06 08:17:08;;;;;;;39.50;24.40;;;;;;;4.09;79.17;99550.42;109101;1254;66747;-68
2024/02/06 08:19:35;;;;;;;40.20;25.70;;;;;;;4.16;79.07;99545.45;109095;1254;138568;-75
2024/02/06 08:22:01;;;;;;;45.40;26.30;;;;;;;4.22;79.23;99545.63;108976;1254;59743;-68
2024/02/06 08:24:28;;;;;;;42.00;26.40;;;;;;;4.28;79.25;99541.48;108852;1254;138739;-67
2024/02/06 08:26:55;;;;;;;44.10;27.90;;;;;;;4.34;79.14;99535.75;108874;1257;74503;-68
2024/02/06 08:29:22;;;;;;;49.70;30.80;;;;;;;4.39;78.97;99533.30;108902;1262;65569;-68
2024/02/06 08:31:49;;;;;;;45.40;28.50;;;;;;;4.49;79.13;99532.71;109039;1255;138421;-68
2024/02/06 08:34:16;;;;;;;47.50;28.80;;;;;;;4.56;79.04;99531.54;109119;1256;59783;-61
2024/02/06 08:36:42;;;;;;;45.70;28.70;;;;;;;4.64;79.06;99527.26;108949;1255;140553;-61
2024/02/06 08:39:09;;;;;;;62.50;38.30;;;;;;;4.67;78.90;99521.25;106757;1257;76565;-61
2024/02/06 08:41:36;;;;;;;44.10;27.00;;;;;;;4.74;78.99;99519.88;104830;1262;67346;-60
2024/02/06 08:44:02;;;;;;;39.90;26.60;;;;;;;4.79;78.98;99516.73;104842;1254;138198;-61
2024/02/06 08:46:29;;;;;;;42.00;26.80;;;;;;;4.81;78.89;99510.88;105044;1259;62179;-60
2024/02/06 08:48:56;;;;;;;37.00;25.10;;;;;;;4.83;79.02;99509.20;104981;1260;138077;-60
2024/02/06 08:51:23;;;;;;;37.70;24.30;;;;;;;4.85;79.04;99509.63;105000;1256;74761;-61
2024/02/06 08:53:49;;;;;;;35.40;24.70;;;;;;;4.93;79.17;99503.90;104993;1254;67479;-62
2024/02/06 08:56:16;;;;;;;33.70;23.70;;;;;;;5.00;79.26;99504.09;104666;1254;139212;-62
2024/02/06 08:58:43;;;;;;;36.50;24.50;;;;;;;5.08;79.39;99505.20;105089;1254;62059;-61
2024/02/06 09:01:09;;;;;;;33.20;23.20;;;;;;;5.16;79.31;99508.36;104979;1254;139335;-61
2024/02/06 09:03:37;;;;;;;33.60;23.50;;;;;;;5.21;79.39;99506.07;105026;1254;75673;-69
2024/02/06 09:06:05;;;;;;;33.10;24.70;;;;;;;5.30;79.44;99503.67;105005;1258;67149;-67
2024/02/06 09:08:33;;;;;;;45.20;32.10;;;;;;;5.37;79.43;99504.55;108965;1254;138743;-66
2024/02/06 09:10:59;;;;;;;49.50;35.50;;;;;;;5.44;79.41;99501.26;109174;1254;59934;-68
2024/02/06 09:13:26;;;;;;;44.70;33.80;;;;;;;5.54;79.54;99498.72;109085;1254;139175;-68
2024/02/06 09:15:53;;;;;;;38.70;30.80;;;;;;;5.65;79.56;99494.46;108918;1254;75891;-67
2024/02/06 09:18:20;;;;;;;31.70;25.00;;;;;;;5.75;79.48;99491.23;108877;1254;138863;-67
2024/02/06 09:20:47;;;;;;;34.80;25.40;;;;;;;5.84;79.47;99491.09;109172;1254;72801;-68
2024/02/06 09:23:13;;;;;;;30.10;23.60;;;;;;;5.96;79.65;99490.88;109024;1254;217976;-67
2024/02/06 09:25:43;;;;;;;28.80;22.20;;;;;;;6.13;79.70;99486.56;109122;1256;139311;-68
2024/02/06 09:28:10;;;;;;;34.30;21.00;;;;;;;6.25;79.54;99489.80;109218;1254;75227;-67
2024/02/06 09:30:39;;;;;;;41.80;28.70;;;;;;;6.34;79.60;99484.42;109076;1254;138600;-68
2024/02/06 09:33:06;;;;;;;30.60;21.30;;;;;;;6.47;79.62;99482.95;109092;1254;71233;-68
2024/02/06 09:35:33;;;;;;;23.50;16.70;;;;;;;6.55;79.69;99480.15;109177;1254;59796;-68
2024/02/06 09:38:00;;;;;;;18.30;13.20;;;;;;;6.65;79.75;99480.54;109107;1254;138755;-68
2024/02/06 09:40:26;;;;;;;16.00;11.70;;;;;;;6.74;79.77;99472.16;109194;1254;76901;-68
2024/02/06 09:42:53;;;;;;;14.80;9.50;;;;;;;6.84;79.83;99467.32;109009;1259;138815;-68
2024/02/06 09:45:20;;;;;;;12.10;8.70;;;;;;;6.95;79.89;99462.30;106096;1257;72969;-69
2024/02/06 09:47:46;;;;;;;16.60;9.70;;;;;;;7.04;79.72;99462.11;105180;1259;62080;-68
2024/02/06 09:50:13;;;;;;;18.20;13.30;;;;;;;7.07;79.63;99463.02;104998;1259;139913;-67
2024/02/06 09:52:43;;;;;;;27.00;21.50;;;;;;;7.05;79.69;99463.34;105081;1254;76180;-68
2024/02/06 09:55:11;;;;;;;22.70;19.20;;;;;;;7.08;79.77;99463.74;104681;1254;139276;-67
2024/02/06 09:57:38;;;;;;;17.70;14.50;;;;;;;7.12;79.88;99464.70;109159;1254;73986;-68
2024/02/06 10:00:08;;;;;;;63.80;48.50;;;;;;;7.17;80.05;99466.89;109193;1254;60552;-68
2024/02/06 10:02:41;;;;;;;14.70;11.90;;;;;;;7.22;80.00;99459.27;108883;1254;139448;-68
2024/02/06 10:05:12;;;;;;;16.30;10.50;;;;;;;7.23;79.92;99454.95;108994;1254;76365;-69
2024/02/06 10:07:39;;;;;;;11.00;8.40;;;;;;;7.24;79.90;99454.97;109114;1254;139345;-68
2024/02/06 10:10:06;;;;;;;10.30;8.10;;;;;;;7.24;79.96;99455.13;108994;1254;72587;-68
2024/02/06 10:12:32;;;;;;;11.80;7.50;;;;;;;7.24;79.92;99447.46;108873;1256;138347;-68
2024/02/06 10:14:59;;;;;;;10.50;8.10;;;;;;;7.27;80.14;99445.59;108927;1256;59897;-68
2024/02/06 10:17:26;;;;;;;11.10;8.00;;;;;;;7.30;80.06;99442.51;109188;1255;73750;-68
2024/02/06 10:19:53;;;;;;;9.90;7.30;;;;;;;7.32;80.07;99435.02;106806;1256;138122;-68
2024/02/06 10:22:19;;;;;;;11.20;8.20;;;;;;;7.35;80.26;99433.17;104907;1256;72200;-67
2024/02/06 10:24:46;;;;;;;12.70;9.10;;;;;;;7.38;80.24;99432.70;104779;1259;139781;-67
2024/02/06 10:27:15;;;;;;;10.30;7.70;;;;;;;7.40;80.31;99431.67;105003;1256;62147;-68
2024/02/06 10:29:42;;;;;;;9.50;7.50;;;;;;;7.45;80.38;99430.18;109111;1256;76328;-68
2024/02/06 10:32:13;;;;;;;10.30;7.30;;;;;;;7.44;80.32;99434.02;109077;1256;138496;-68
2024/02/06 10:34:39;;;;;;;9.40;7.10;;;;;;;7.39;80.21;99428.88;109156;1255;71610;-68
2024/02/06 10:37:07;;;;;;;12.30;8.30;;;;;;;7.31;80.29;99427.17;108998;1256;138962;-68
2024/02/06 10:39:34;;;;;;;11.10;8.20;;;;;;;7.26;80.39;99424.30;109155;1256;59966;-68
2024/02/06 10:42:01;;;;;;;11.80;8.10;;;;;;;7.25;80.47;99429.16;109134;1255;74780;-61
2024/02/06 10:44:28;;;;;;;13.70;9.20;;;;;;;7.24;80.51;99430.02;107648;1258;138861;-61
2024/02/06 10:46:59;;;;;;;12.30;9.60;;;;;;;7.22;80.65;99429.11;107793;1256;73388;-60
2024/02/06 10:49:26;;;;;;;11.00;9.10;;;;;;;7.25;80.85;99428.64;104081;1256;139961;-61
2024/02/06 10:52:06;;;;;;;14.30;10.20;;;;;;;7.27;80.76;99426.40;104993;1256;62025;-60
2024/02/06 10:54:37;;;;;;;55.70;40.60;;;;;;;7.26;80.86;99417.30;108983;1256;139321;-61
2024/02/06 10:57:08;;;;;;;17.70;13.90;;;;;;;7.28;81.02;99415.95;109138;1256;63869;-61
2024/02/06 10:59:43;;;;;;;16.80;12.70;;;;;;;7.29;80.98;99413.35;108976;1256;73785;-67
2024/02/06 11:02:21;;;;;;;15.20;11.50;;;;;;;7.27;80.92;99406.50;108978;1254;138871;-68
2024/02/06 11:04:56;;;;;;;13.30;10.00;;;;;;;7.26;80.95;99405.09;108993;1256;60178;-68
2024/02/06 11:07:22;;;;;;;16.20;10.30;;;;;;;7.28;81.08;99395.70;108821;1257;138768;-68
2024/02/06 11:09:49;;;;;;;14.00;10.70;;;;;;;7.30;81.10;99393.48;108975;1256;65510;-68
2024/02/06 11:12:16;;;;;;;12.90;10.00;;;;;;;7.31;81.16;99389.64;108792;1254;139024;-66
2024/02/06 11:14:43;;;;;;;13.60;10.50;;;;;;;7.32;81.07;99387.04;105239;1258;62057;-67